createdAt,value
2018-06-17T00:00:48.785Z,100959.30
2018-06-17T00:05:41.681Z,100957.97
2018-06-17T00:10:34.559Z,100957.23
2018-06-17T00:15:27.417Z,100957.59
2018-06-17T00:20:20.310Z,100957.40
2018-06-17T00:25:13.202Z,100954.22
2018-06-17T00:30:06.215Z,100950.66
2018-06-17T00:34:59.052Z,100953.46
2018-06-17T00:39:51.954Z,100955.78
2018-06-17T00:44:46.595Z,100956.14
2018-06-17T00:49:39.470Z,100949.63
2018-06-17T00:54:32.381Z,100949.45
2018-06-17T00:59:25.240Z,100949.80
2018-06-17T01:04:18.082Z,100949.01
2018-06-17T01:09:10.989Z,100953.00
2018-06-17T01:14:03.908Z,100942.23
2018-06-17T01:18:56.867Z,100946.71
2018-06-17T01:23:49.738Z,100937.22
2018-06-17T01:28:42.572Z,100932.34
2018-06-17T01:33:35.409Z,100937.31
2018-06-17T01:38:28.494Z,100930.24
2018-06-17T01:43:21.417Z,100938.55
2018-06-17T01:48:14.342Z,100936.72
2018-06-17T01:53:07.293Z,100939.02
2018-06-17T01:58:00.193Z,100933.41
2018-06-17T02:02:53.060Z,100934.91
2018-06-17T02:07:52.205Z,100939.92
2018-06-17T02:12:45.155Z,100930.17
2018-06-17T02:17:38.040Z,100929.66
2018-06-17T02:22:30.992Z,100932.97
2018-06-17T02:27:23.922Z,100922.41
2018-06-17T02:32:16.759Z,100915.37
2018-06-17T02:37:09.867Z,100918.19
2018-06-17T02:42:02.805Z,100908.92
2018-06-17T02:47:01.456Z,100907.04
2018-06-17T02:52:00.035Z,100906.27
2018-06-17T02:56:52.862Z,100903.89
2018-06-17T03:01:45.712Z,100896.56
2018-06-17T03:06:38.670Z,100907.64
2018-06-17T03:11:31.518Z,100902.78
2018-06-17T03:16:24.395Z,100903.45
2018-06-17T03:21:17.377Z,100899.16
2018-06-17T03:26:15.931Z,100896.22
2018-06-17T03:31:14.432Z,100898.78
2018-06-17T03:36:08.364Z,100895.77
2018-06-17T03:41:01.216Z,100904.26
2018-06-17T03:45:54.077Z,100900.25
2018-06-17T03:50:47.081Z,100907.44
2018-06-17T03:55:40.073Z,100902.77
2018-06-17T04:00:32.987Z,100901.69
2018-06-17T04:05:28.679Z,100897.32
2018-06-17T04:10:21.601Z,100899.77
2018-06-17T04:15:14.524Z,100903.62
2018-06-17T04:20:07.387Z,100899.84
2018-06-17T04:25:00.305Z,100898.95
2018-06-17T04:29:53.210Z,100903.32
2018-06-17T04:34:46.104Z,100912.36
2018-06-17T04:39:38.967Z,100908.47
2018-06-17T04:44:32.143Z,100919.47
2018-06-17T04:49:25.053Z,100919.51
2018-06-17T04:54:17.882Z,100925.05
2018-06-17T04:59:10.799Z,100934.97
2018-06-17T05:04:03.718Z,100940.72
2018-06-17T05:08:56.693Z,100943.98
2018-06-17T05:13:49.599Z,100940.88
2018-06-17T05:18:42.561Z,100946.66
2018-06-17T05:23:35.474Z,100949.91
2018-06-17T05:28:28.411Z,100952.95
2018-06-17T05:33:21.359Z,100948.35
2018-06-17T05:38:14.220Z,100958.43
2018-06-17T05:43:07.117Z,100952.09
2018-06-17T05:47:59.986Z,100957.32
2018-06-17T05:52:52.966Z,100959.77
2018-06-17T05:57:45.841Z,100961.40
2018-06-17T06:02:38.719Z,100964.04
2018-06-17T06:07:31.629Z,100966.72
2018-06-17T06:12:24.613Z,100970.80
2018-06-17T06:17:17.636Z,100966.33
2018-06-17T06:22:10.463Z,100968.70
2018-06-17T06:27:03.285Z,100975.71
2018-06-17T06:31:56.157Z,100973.56
2018-06-17T06:36:49.149Z,100964.74
2018-06-17T06:41:41.997Z,100965.42
2018-06-17T06:46:34.970Z,100973.05
2018-06-17T06:51:27.784Z,100979.87
2018-06-17T06:56:20.730Z,100970.23
2018-06-17T07:01:24.746Z,100976.14
2018-06-17T07:06:35.308Z,100984.28
2018-06-17T07:11:28.303Z,100976.98
2018-06-17T07:16:32.929Z,100988.66
2018-06-17T07:21:25.847Z,100995.33
2018-06-17T07:27:36.111Z,101002.82
2018-06-17T07:32:29.069Z,101013.95
2018-06-17T07:37:22.016Z,101012.79
2018-06-17T07:42:14.941Z,101012.77
2018-06-17T07:47:07.859Z,101017.91
2018-06-17T07:52:18.973Z,101031.74
2018-06-17T07:57:13.234Z,101031.73
2018-06-17T08:02:06.886Z,101025.86
2018-06-17T08:06:59.748Z,101028.52
2018-06-17T08:11:52.701Z,101031.07
2018-06-17T08:16:45.601Z,101025.06
2018-06-17T08:21:38.564Z,101038.00
2018-06-17T08:26:31.446Z,101044.45
2018-06-17T08:31:24.396Z,101045.48
2018-06-17T08:36:17.197Z,101040.86
2018-06-17T08:41:10.151Z,101048.16
2018-06-17T08:46:03.041Z,101039.58
2018-06-17T08:50:55.982Z,101040.36
2018-06-17T08:55:48.810Z,101042.01
2018-06-17T09:00:41.718Z,101042.30
2018-06-17T09:05:34.543Z,101044.67
2018-06-17T09:10:27.463Z,101050.54
2018-06-17T09:15:20.289Z,101048.97
2018-06-17T09:20:13.545Z,101047.49
2018-06-17T09:25:06.454Z,101040.13
2018-06-17T09:29:59.377Z,101033.22
2018-06-17T09:34:52.474Z,101028.31
2018-06-17T09:39:45.374Z,101031.80
2018-06-17T09:44:38.268Z,101028.92
2018-06-17T09:49:31.090Z,101031.59
2018-06-17T09:54:23.962Z,101036.84
2018-06-17T09:59:16.884Z,101034.75
2018-06-17T10:04:09.769Z,101031.87
2018-06-17T10:09:03.080Z,101020.49
2018-06-17T10:13:56.043Z,101027.83
2018-06-17T10:18:48.969Z,101029.45
2018-06-17T10:23:41.829Z,101027.25
2018-06-17T10:28:35.078Z,101038.70
2018-06-17T10:33:27.973Z,101042.30
2018-06-17T10:38:20.890Z,101035.89
2018-06-17T10:43:14.972Z,101033.30
2018-06-17T10:48:08.212Z,101033.59
2018-06-17T10:53:01.126Z,101031.48
2018-06-17T10:57:54.042Z,101034.73
2018-06-17T11:02:46.937Z,101042.25
2018-06-17T11:07:39.814Z,101038.53
2018-06-17T11:12:33.117Z,101042.38
2018-06-17T11:17:26.193Z,101037.17
2018-06-17T11:22:19.510Z,101036.63
2018-06-17T11:27:12.464Z,101035.13
2018-06-17T11:32:05.354Z,101041.00
2018-06-17T11:36:58.296Z,101038.31
2018-06-17T11:41:51.172Z,101036.95
2018-06-17T11:46:44.074Z,101037.50
2018-06-17T11:51:36.982Z,101030.91
2018-06-17T11:56:29.906Z,101033.53
2018-06-17T12:01:22.837Z,101026.77
2018-06-17T12:06:15.718Z,101027.35
2018-06-17T12:11:08.634Z,101029.95
2018-06-17T12:16:01.575Z,101033.02
2018-06-17T12:20:54.471Z,101039.44
2018-06-17T12:25:47.837Z,101034.00
2018-06-17T12:30:40.749Z,101039.55
2018-06-17T12:35:33.733Z,101032.45
2018-06-17T12:40:26.641Z,101034.24
2018-06-17T12:45:19.788Z,101042.31
2018-06-17T12:50:12.727Z,101034.98
2018-06-17T12:55:05.670Z,101026.20
2018-06-17T12:59:58.562Z,101030.02
2018-06-17T13:04:51.456Z,101031.54
2018-06-17T13:09:44.730Z,101033.13
2018-06-17T13:14:37.670Z,101020.85
2018-06-17T13:19:30.604Z,101015.36
2018-06-17T13:24:23.452Z,101014.80
2018-06-17T13:29:16.467Z,101009.97
2018-06-17T13:34:09.539Z,101016.37
2018-06-17T13:39:03.175Z,101011.98
2018-06-17T13:43:56.109Z,101006.14
2018-06-17T13:48:49.110Z,101008.39
2018-06-17T13:53:42.022Z,101011.98
2018-06-17T13:58:35.011Z,101019.83
2018-06-17T14:03:27.917Z,101023.98
2018-06-17T14:08:20.684Z,101015.56
2018-06-17T14:13:13.583Z,101017.08
2018-06-17T14:18:06.518Z,101030.02
2018-06-17T14:22:59.352Z,101027.47
2018-06-17T14:27:52.262Z,101037.18
2018-06-17T14:32:45.263Z,101049.19
2018-06-17T14:37:38.199Z,101045.01
2018-06-17T14:42:37.011Z,101057.37
2018-06-17T14:47:35.536Z,101051.27
2018-06-17T14:52:36.009Z,101048.94
2018-06-17T14:57:28.953Z,101048.40
2018-06-17T15:02:21.896Z,101041.44
2018-06-17T15:07:14.800Z,101047.11
2018-06-17T15:12:07.734Z,101038.67
2018-06-17T15:17:00.903Z,101047.22
2018-06-17T15:21:53.760Z,101046.30
2018-06-17T15:26:46.643Z,101049.92
2018-06-17T15:31:45.193Z,101050.79
2018-06-17T15:36:43.740Z,101052.41
2018-06-17T15:41:36.758Z,101055.59
2018-06-17T15:46:29.676Z,101059.66
2018-06-17T15:51:22.637Z,101054.20
2018-06-17T15:56:15.598Z,101049.95
2018-06-17T16:01:09.086Z,101062.62
2018-06-17T16:06:02.082Z,101058.08
2018-06-17T16:10:55.036Z,101070.37
2018-06-17T16:15:53.655Z,101066.22
2018-06-17T16:20:52.182Z,101070.13
2018-06-17T16:25:45.096Z,101080.34
2018-06-17T16:30:38.026Z,101080.13
2018-06-17T16:35:30.888Z,101088.85
2018-06-17T16:40:23.792Z,101093.31
2018-06-17T16:45:16.695Z,101095.20
2018-06-17T16:50:09.590Z,101097.16
2018-06-17T16:55:07.120Z,101112.13
2018-06-17T17:00:04.992Z,101118.05
2018-06-17T17:04:58.262Z,101116.34
2018-06-17T17:09:51.119Z,101123.73
2018-06-17T17:14:44.013Z,101119.30
2018-06-17T17:19:37.026Z,101131.42
2018-06-17T17:24:29.953Z,101137.71
2018-06-17T17:29:22.890Z,101145.80
2018-06-17T17:34:21.396Z,101151.19
2018-06-17T17:39:20.175Z,101158.03
2018-06-17T17:44:14.214Z,101150.55
2018-06-17T17:49:07.082Z,101162.57
2018-06-17T17:54:00.104Z,101168.92
2018-06-17T17:58:53.024Z,101170.00
2018-06-17T18:03:45.971Z,101188.15
2018-06-17T18:08:38.789Z,101192.47
2018-06-17T18:13:31.675Z,101194.00
2018-06-17T18:18:24.629Z,101197.33
2018-06-17T18:23:17.553Z,101208.45
2018-06-17T18:28:16.105Z,101208.38
2018-06-17T18:33:14.677Z,101210.72
2018-06-17T18:38:07.749Z,101215.17
2018-06-17T18:43:00.742Z,101217.69
2018-06-17T18:47:53.731Z,101223.87
2018-06-17T18:52:46.786Z,101228.89
2018-06-17T18:57:39.716Z,101228.78
2018-06-17T19:02:32.615Z,101229.12
2018-06-17T19:07:25.782Z,101228.38
2018-06-17T19:13:26.402Z,101236.19
2018-06-17T19:18:19.372Z,101241.80
2018-06-17T19:23:12.309Z,101249.78
2018-06-17T19:28:05.330Z,101264.94
2018-06-17T19:32:58.228Z,101263.00
2018-06-17T19:37:51.316Z,101276.48
2018-06-17T19:42:44.161Z,101285.00
2018-06-17T19:47:37.188Z,101283.73
2018-06-17T19:52:35.918Z,101285.36
2018-06-17T19:57:34.604Z,101288.81
2018-06-17T20:02:27.718Z,101280.14
2018-06-17T20:07:20.650Z,101285.12
2018-06-17T20:12:13.656Z,101285.96
2018-06-17T20:17:06.738Z,101290.87
2018-06-17T20:21:59.597Z,101283.39
2018-06-17T20:26:52.412Z,101284.34
2018-06-17T20:31:50.913Z,101275.66
2018-06-17T20:36:49.635Z,101279.70
2018-06-17T20:42:50.145Z,101281.58
2018-06-17T20:47:43.186Z,101276.64
2018-06-17T20:52:36.203Z,101286.57
2018-06-17T20:57:29.176Z,101287.31
2018-06-17T21:02:22.034Z,101292.16
2018-06-17T21:07:15.004Z,101297.17
2018-06-17T21:12:07.977Z,101296.61
2018-06-17T21:17:00.907Z,101304.80
2018-06-17T21:21:59.496Z,101312.16
2018-06-17T21:26:58.029Z,101317.43
2018-06-17T21:31:50.950Z,101312.37
2018-06-17T21:36:43.878Z,101312.86
2018-06-17T21:41:37.747Z,101315.75
2018-06-17T21:46:30.605Z,101322.41
2018-06-17T21:51:23.513Z,101333.86
2018-06-17T21:56:16.444Z,101334.22
2018-06-17T22:01:10.140Z,101342.55
2018-06-17T22:06:03.043Z,101341.82
2018-06-17T22:11:01.673Z,101346.50
2018-06-17T22:16:00.376Z,101351.22
2018-06-17T22:20:53.265Z,101359.77
2018-06-17T22:25:46.181Z,101360.37
2018-06-17T22:30:39.100Z,101355.72
2018-06-17T22:35:31.947Z,101354.65
2018-06-17T22:40:24.912Z,101357.39
2018-06-17T22:45:17.851Z,101360.73
2018-06-17T22:50:10.751Z,101356.94
2018-06-17T22:55:04.394Z,101354.81
2018-06-17T23:00:03.124Z,101361.20
2018-06-17T23:05:01.817Z,101365.73
2018-06-17T23:09:55.069Z,101374.30
2018-06-17T23:14:47.980Z,101374.08
2018-06-17T23:19:40.917Z,101371.34
2018-06-17T23:24:33.866Z,101377.90
2018-06-17T23:29:26.742Z,101383.11
2018-06-17T23:34:19.730Z,101382.33
2018-06-17T23:39:12.589Z,101383.42
2018-06-17T23:44:05.506Z,101385.06
2018-06-17T23:49:04.238Z,101394.38
2018-06-17T23:54:03.029Z,101396.36
2018-06-17T23:58:55.920Z,101390.61
